createdAt,value
2023-04-09T00:00:14.899Z,68.89
2023-04-09T00:01:16.386Z,69.10
2023-04-09T00:02:17.830Z,68.60
2023-04-09T00:03:19.361Z,68.93
2023-04-09T00:04:22.439Z,69.45
2023-04-09T00:05:23.914Z,69.39
2023-04-09T00:06:25.939Z,69.48
2023-04-09T00:07:28.074Z,69.58
2023-04-09T00:08:29.622Z,69.41
2023-04-09T00:09:31.163Z,69.78
2023-04-09T00:10:32.645Z,69.58
2023-04-09T00:11:34.213Z,69.45
2023-04-09T00:12:35.727Z,69.53
2023-04-09T00:13:39.545Z,69.45
2023-04-09T00:14:41.472Z,69.95
2023-04-09T00:15:42.904Z,69.68
2023-04-09T00:16:44.999Z,69.72
2023-04-09T00:17:46.566Z,69.43
2023-04-09T00:18:48.101Z,69.44
2023-04-09T00:19:49.595Z,69.54
2023-04-09T00:20:51.355Z,69.61
2023-04-09T00:21:53.389Z,69.64
2023-04-09T00:22:56.420Z,69.57
2023-04-09T00:23:57.943Z,69.55
2023-04-09T00:24:59.428Z,69.90
2023-04-09T00:26:01.322Z,69.37
2023-04-09T00:27:02.769Z,69.75
2023-04-09T00:28:04.256Z,69.86
2023-04-09T00:29:06.065Z,69.25
2023-04-09T00:30:08.759Z,69.07
2023-04-09T00:31:10.968Z,69.31
2023-04-09T00:32:12.508Z,69.67
2023-04-09T00:33:13.966Z,69.26
2023-04-09T00:34:15.943Z,69.02
2023-04-09T00:35:17.617Z,69.33
2023-04-09T00:36:19.131Z,68.91
2023-04-09T00:37:20.647Z,68.93
2023-04-09T00:38:22.119Z,69.06
2023-04-09T00:39:24.055Z,69.02
2023-04-09T00:40:25.492Z,69.01
2023-04-09T00:41:26.953Z,69.55
2023-04-09T00:42:32.232Z,69.17
2023-04-09T00:43:34.159Z,69.13
2023-04-09T00:44:35.740Z,69.46
2023-04-09T00:45:38.103Z,68.90
2023-04-09T00:46:39.713Z,69.18
2023-04-09T00:47:43.158Z,69.20
2023-04-09T00:48:45.309Z,69.56
2023-04-09T00:49:46.746Z,68.84
2023-04-09T00:50:48.729Z,69.30
2023-04-09T00:51:50.627Z,69.91
2023-04-09T00:52:52.341Z,68.93
2023-04-09T00:53:55.300Z,69.29
2023-04-09T00:54:56.905Z,69.00
2023-04-09T00:55:58.984Z,69.37
2023-04-09T00:57:00.677Z,69.17
2023-04-09T00:58:02.817Z,69.12
2023-04-09T00:59:04.827Z,69.38
2023-04-09T01:00:07.805Z,69.31
2023-04-09T01:01:09.406Z,69.15
2023-04-09T01:02:11.258Z,69.49
2023-04-09T01:03:13.050Z,70.01
2023-04-09T01:04:15.089Z,69.93
2023-04-09T01:05:16.698Z,69.83
2023-04-09T01:06:32.553Z,70.02
2023-04-09T01:08:01.116Z,69.77
2023-04-09T01:09:15.438Z,70.28
2023-04-09T01:10:38.188Z,69.73
2023-04-09T01:12:02.592Z,69.31
2023-04-09T01:13:19.368Z,69.77
2023-04-09T01:14:37.413Z,70.31
2023-04-09T01:15:46.708Z,69.68
2023-04-09T01:16:57.313Z,69.77
2023-04-09T01:18:19.078Z,69.91
2023-04-09T01:19:43.961Z,70.09
2023-04-09T01:20:57.542Z,70.05
2023-04-09T01:22:00.444Z,70.06
2023-04-09T01:23:14.096Z,70.27
2023-04-09T01:24:39.372Z,69.88
2023-04-09T01:25:53.472Z,70.01
2023-04-09T01:27:06.804Z,69.68
2023-04-09T01:28:26.171Z,70.16
2023-04-09T01:29:31.681Z,69.98
2023-04-09T01:30:33.497Z,70.30
2023-04-09T01:31:38.339Z,69.76
2023-04-09T01:32:40.827Z,70.12
2023-04-09T01:33:43.325Z,70.47
2023-04-09T01:34:47.479Z,70.15
2023-04-09T01:35:50.585Z,70.35
2023-04-09T01:36:56.702Z,70.25
2023-04-09T01:37:58.458Z,70.11
2023-04-09T01:39:03.363Z,70.42
2023-04-09T01:40:05.668Z,70.99
2023-04-09T01:41:08.886Z,70.37
2023-04-09T01:42:12.751Z,70.05
2023-04-09T01:43:15.925Z,69.82
2023-04-09T01:44:18.238Z,70.57
2023-04-09T01:45:20.892Z,70.19
2023-04-09T01:46:24.454Z,69.88
2023-04-09T01:47:27.476Z,69.82
2023-04-09T01:48:31.532Z,70.31
2023-04-09T01:49:33.678Z,70.54
2023-04-09T01:50:35.657Z,70.30
2023-04-09T01:51:37.732Z,70.56
2023-04-09T01:52:39.505Z,70.63
2023-04-09T01:53:41.822Z,70.24
2023-04-09T01:54:43.769Z,70.59
2023-04-09T01:55:45.222Z,70.16
2023-04-09T01:56:48.289Z,69.92
2023-04-09T01:57:49.727Z,70.42
2023-04-09T01:58:52.942Z,70.07
2023-04-09T01:59:55.185Z,70.11
2023-04-09T02:01:03.525Z,70.48
2023-04-09T02:02:12.287Z,69.85
2023-04-09T02:03:21.797Z,70.54
2023-04-09T02:04:32.682Z,70.64
2023-04-09T02:05:41.795Z,70.40
2023-04-09T02:07:01.470Z,70.71
2023-04-09T02:08:05.593Z,71.12
2023-04-09T02:09:09.092Z,71.02
2023-04-09T02:10:13.192Z,70.70
2023-04-09T02:11:16.368Z,71.25
2023-04-09T02:12:19.647Z,70.58
2023-04-09T02:13:21.984Z,71.06
2023-04-09T02:14:26.551Z,71.12
2023-04-09T02:15:28.995Z,70.48
2023-04-09T02:16:32.193Z,70.63
2023-04-09T02:17:33.929Z,71.21
2023-04-09T02:18:35.434Z,71.10
2023-04-09T02:19:44.994Z,70.97
2023-04-09T02:20:46.412Z,71.20
2023-04-09T02:21:47.914Z,71.12
2023-04-09T02:22:49.373Z,71.26
2023-04-09T02:23:51.036Z,70.73
2023-04-09T02:24:52.475Z,70.68
2023-04-09T02:25:54.349Z,70.91
2023-04-09T02:26:55.858Z,70.55
2023-04-09T02:27:57.296Z,70.87
2023-04-09T02:28:58.728Z,71.13
2023-04-09T02:30:00.245Z,70.90
2023-04-09T02:31:01.761Z,70.88
2023-04-09T02:32:03.359Z,70.75
2023-04-09T02:33:05.211Z,70.17
2023-04-09T02:34:06.660Z,70.47
2023-04-09T02:35:08.250Z,71.57
2023-04-09T02:36:13.521Z,70.88
2023-04-09T02:37:15.064Z,71.19
2023-04-09T02:38:16.560Z,70.79
2023-04-09T02:39:17.988Z,71.03
2023-04-09T02:40:19.967Z,70.47
2023-04-09T02:41:21.441Z,71.30
2023-04-09T02:42:22.920Z,71.36
2023-04-09T02:43:24.626Z,70.75
2023-04-09T02:44:26.114Z,71.16
2023-04-09T02:45:28.019Z,71.24
2023-04-09T02:46:30.125Z,70.84
2023-04-09T02:47:31.676Z,70.94
2023-04-09T02:48:33.184Z,71.13
2023-04-09T02:49:35.180Z,71.04
2023-04-09T02:50:36.676Z,71.13
2023-04-09T02:51:38.129Z,70.38
2023-04-09T02:52:39.548Z,71.11
2023-04-09T02:53:41.768Z,70.66
2023-04-09T02:54:43.213Z,70.63
2023-04-09T02:55:44.611Z,70.61
2023-04-09T02:56:46.168Z,71.06
2023-04-09T02:57:47.609Z,70.69
2023-04-09T02:58:51.877Z,70.07
2023-04-09T02:59:53.479Z,70.41
2023-04-09T03:00:54.869Z,71.12
2023-04-09T03:01:56.355Z,70.56
2023-04-09T03:02:58.546Z,70.60
2023-04-09T03:04:01.537Z,70.62
2023-04-09T03:05:03.373Z,70.63
2023-04-09T03:06:04.869Z,70.40
2023-04-09T03:07:06.812Z,69.89
2023-04-09T03:08:08.753Z,70.18
2023-04-09T03:09:10.335Z,70.51
2023-04-09T03:10:11.742Z,69.91
2023-04-09T03:11:13.267Z,70.25
2023-04-09T03:12:14.997Z,70.70
2023-04-09T03:13:16.919Z,70.18
2023-04-09T03:14:18.388Z,69.88
2023-04-09T03:15:19.842Z,70.48
2023-04-09T03:16:21.845Z,69.98
2023-04-09T03:17:27.066Z,70.28
2023-04-09T03:18:28.633Z,70.52
2023-04-09T03:19:31.337Z,70.64
2023-04-09T03:20:32.861Z,70.32
2023-04-09T03:21:34.304Z,70.21
2023-04-09T03:22:39.315Z,70.70
2023-04-09T03:23:40.814Z,70.78
2023-04-09T03:24:42.724Z,70.66
2023-04-09T03:25:44.269Z,70.89
2023-04-09T03:26:45.818Z,70.52
2023-04-09T03:27:47.746Z,70.95
2023-04-09T03:28:49.222Z,71.47
2023-04-09T03:29:50.745Z,71.01
2023-04-09T03:30:52.803Z,71.19
2023-04-09T03:31:54.329Z,71.44
2023-04-09T03:32:55.975Z,70.37
2023-04-09T03:33:57.435Z,70.38
2023-04-09T03:34:58.838Z,71.01
2023-04-09T03:36:00.448Z,71.21
2023-04-09T03:37:01.955Z,71.17
2023-04-09T03:38:03.409Z,70.82
2023-04-09T03:39:04.923Z,71.27
2023-04-09T03:40:07.015Z,71.59
2023-04-09T03:41:08.577Z,71.58
2023-04-09T03:42:10.054Z,71.40
2023-04-09T03:43:11.525Z,71.38
2023-04-09T03:44:13.485Z,71.22
2023-04-09T03:45:14.913Z,71.56
2023-04-09T03:46:17.800Z,71.04
2023-04-09T03:47:19.285Z,71.15
2023-04-09T03:48:20.663Z,72.09
2023-04-09T03:49:22.238Z,72.63
2023-04-09T03:50:23.850Z,71.88
2023-04-09T03:51:25.295Z,72.64
2023-04-09T03:52:26.864Z,72.38
2023-04-09T03:53:28.763Z,72.88
2023-04-09T03:54:30.589Z,72.74
2023-04-09T03:55:32.203Z,72.70
2023-04-09T03:56:33.644Z,72.87
2023-04-09T03:57:35.684Z,72.73
2023-04-09T03:58:37.586Z,72.81
2023-04-09T03:59:39.112Z,72.67
2023-04-09T04:00:40.633Z,72.39
2023-04-09T04:01:42.638Z,72.10
2023-04-09T04:02:44.246Z,72.74
2023-04-09T04:03:46.018Z,72.42
2023-04-09T04:04:48.225Z,72.45
2023-04-09T04:05:49.760Z,73.13
2023-04-09T04:06:51.469Z,72.66
2023-04-09T04:07:53.364Z,73.23
2023-04-09T04:08:55.056Z,72.90
2023-04-09T04:09:56.614Z,73.24
2023-04-09T04:11:05.058Z,73.67
2023-04-09T04:12:06.551Z,73.83
2023-04-09T04:13:11.212Z,73.20
2023-04-09T04:14:12.683Z,73.70
2023-04-09T04:15:14.489Z,73.19
2023-04-09T04:16:16.088Z,73.18
2023-04-09T04:17:17.605Z,72.97
2023-04-09T04:18:19.033Z,72.67
2023-04-09T04:19:20.903Z,72.48
2023-04-09T04:20:22.343Z,72.95
2023-04-09T04:21:23.753Z,72.78
2023-04-09T04:22:26.204Z,72.81
2023-04-09T04:23:28.493Z,72.69
2023-04-09T04:24:29.918Z,72.93
2023-04-09T04:25:31.493Z,73.09
2023-04-09T04:26:33.005Z,72.98
2023-04-09T04:27:34.445Z,72.93
2023-04-09T04:28:37.425Z,72.71
2023-04-09T04:29:39.396Z,72.58
2023-04-09T04:30:43.491Z,72.84
2023-04-09T04:31:44.985Z,72.95
2023-04-09T04:32:46.487Z,72.92
2023-04-09T04:33:48.427Z,73.31
2023-04-09T04:34:50.543Z,73.19
2023-04-09T04:35:52.107Z,73.47
2023-04-09T04:36:53.556Z,72.86
2023-04-09T04:37:55.476Z,72.89
2023-04-09T04:38:56.882Z,72.58
2023-04-09T04:39:58.388Z,72.30
2023-04-09T04:40:59.843Z,72.81
2023-04-09T04:42:01.438Z,73.10
2023-04-09T04:43:03.383Z,72.67
2023-04-09T04:44:04.884Z,72.69
2023-04-09T04:45:07.036Z,72.91
2023-04-09T04:46:08.663Z,72.78
2023-04-09T04:47:10.327Z,72.59
2023-04-09T04:48:11.791Z,72.51
2023-04-09T04:49:13.196Z,72.37
2023-04-09T04:50:14.729Z,72.62
2023-04-09T04:51:16.696Z,72.91
2023-04-09T04:52:18.183Z,72.46
2023-04-09T04:53:19.625Z,72.71
2023-04-09T04:54:21.045Z,72.74
2023-04-09T04:55:22.480Z,72.79
2023-04-09T04:56:23.902Z,72.79
2023-04-09T04:57:25.481Z,72.30
2023-04-09T04:58:26.999Z,72.40
2023-04-09T04:59:28.650Z,72.52
2023-04-09T05:00:30.074Z,72.93
2023-04-09T05:01:31.742Z,73.05
2023-04-09T05:02:33.358Z,72.57
2023-04-09T05:03:35.038Z,72.63
2023-04-09T05:04:36.726Z,72.81
2023-04-09T05:05:38.210Z,72.98
2023-04-09T05:06:40.193Z,72.56
2023-04-09T05:07:41.632Z,72.49
2023-04-09T05:08:43.133Z,72.45
2023-04-09T05:09:45.071Z,72.27
2023-04-09T05:10:46.933Z,72.78
2023-04-09T05:11:48.371Z,72.06
2023-04-09T05:12:50.326Z,72.40
2023-04-09T05:13:51.770Z,72.49
2023-04-09T05:14:53.668Z,71.92
2023-04-09T05:15:55.217Z,72.31
2023-04-09T05:16:56.715Z,72.76
2023-04-09T05:17:58.434Z,72.42
2023-04-09T05:18:59.938Z,72.91
2023-04-09T05:20:01.370Z,72.40
2023-04-09T05:21:02.880Z,72.41
2023-04-09T05:22:04.935Z,72.40
2023-04-09T05:23:06.411Z,72.36
2023-04-09T05:24:07.837Z,72.59
2023-04-09T05:25:11.111Z,72.23
2023-04-09T05:26:12.588Z,71.96
2023-04-09T05:27:14.069Z,71.94
2023-04-09T05:28:16.869Z,72.45
2023-04-09T05:29:18.354Z,72.35
2023-04-09T05:30:19.890Z,71.81
2023-04-09T05:31:21.307Z,71.98
2023-04-09T05:32:22.841Z,72.32
2023-04-09T05:33:24.324Z,72.31
2023-04-09T05:34:25.819Z,71.96
2023-04-09T05:35:27.309Z,72.01
2023-04-09T05:36:28.769Z,72.28
2023-04-09T05:37:30.428Z,72.23
2023-04-09T05:38:32.404Z,72.21
2023-04-09T05:39:33.891Z,72.19
2023-04-09T05:40:35.546Z,72.72
2023-04-09T05:41:38.691Z,72.69
2023-04-09T05:42:40.318Z,72.63
2023-04-09T05:43:42.807Z,72.56
2023-04-09T05:44:44.698Z,72.51
2023-04-09T05:45:46.214Z,73.05
2023-04-09T05:46:47.726Z,73.32
2023-04-09T05:47:49.306Z,73.04
2023-04-09T05:48:51.355Z,72.81
2023-04-09T05:49:52.960Z,73.29
2023-04-09T05:50:55.633Z,72.83
2023-04-09T05:51:57.321Z,73.33
2023-04-09T05:52:58.665Z,73.63
2023-04-09T05:54:01.480Z,73.56
2023-04-09T05:55:03.278Z,73.65
2023-04-09T05:56:13.413Z,73.60
2023-04-09T05:57:14.999Z,73.62
2023-04-09T05:58:18.733Z,73.79
2023-04-09T05:59:20.735Z,73.46
2023-04-09T06:00:22.228Z,73.34
2023-04-09T06:01:23.706Z,73.21
2023-04-09T06:02:25.893Z,73.32
2023-04-09T06:03:29.254Z,73.57
2023-04-09T06:04:30.989Z,72.95
2023-04-09T06:05:33.219Z,72.89
2023-04-09T06:06:34.733Z,73.08
2023-04-09T06:07:50.213Z,72.66
2023-04-09T06:08:51.704Z,72.08
2023-04-09T06:09:53.170Z,71.60
2023-04-09T06:10:54.688Z,71.71
2023-04-09T06:11:56.144Z,72.65
2023-04-09T06:12:57.569Z,72.18
2023-04-09T06:13:59.031Z,72.18
2023-04-09T06:15:00.532Z,71.96
2023-04-09T06:16:04.761Z,72.01
2023-04-09T06:17:06.282Z,71.60
2023-04-09T06:18:07.859Z,71.59
2023-04-09T06:19:09.410Z,70.85
2023-04-09T06:20:11.286Z,70.96
2023-04-09T06:21:13.678Z,70.30
2023-04-09T06:22:15.525Z,70.16
2023-04-09T06:23:17.186Z,69.19
2023-04-09T06:24:18.653Z,68.93
2023-04-09T06:25:20.239Z,69.02
2023-04-09T06:26:21.758Z,69.46
2023-04-09T06:27:23.299Z,69.30
2023-04-09T06:28:24.950Z,69.42
2023-04-09T06:29:26.403Z,68.11
2023-04-09T06:30:27.914Z,67.80
2023-04-09T06:31:29.429Z,66.97
2023-04-09T06:32:33.642Z,67.28
2023-04-09T06:33:39.253Z,66.62
2023-04-09T06:34:40.684Z,65.72
2023-04-09T06:35:42.565Z,65.26
2023-04-09T06:36:44.575Z,64.82
2023-04-09T06:37:46.021Z,64.62
2023-04-09T06:38:47.457Z,65.57
2023-04-09T06:40:00.337Z,64.73
2023-04-09T06:41:02.649Z,64.51
2023-04-09T06:42:04.604Z,64.01
2023-04-09T06:43:06.860Z,63.83
2023-04-09T06:44:08.383Z,63.90
2023-04-09T06:45:10.216Z,63.86
2023-04-09T06:46:12.473Z,63.23
2023-04-09T06:47:13.918Z,62.02
2023-04-09T06:48:15.474Z,62.35
2023-04-09T06:49:16.896Z,61.88
2023-04-09T06:50:18.416Z,61.45
2023-04-09T06:51:19.944Z,61.03
2023-04-09T06:52:21.436Z,60.76
2023-04-09T06:53:23.459Z,60.68
2023-04-09T06:54:25.074Z,60.73
2023-04-09T06:55:27.014Z,60.33
2023-04-09T06:56:28.538Z,60.49
2023-04-09T06:57:30.000Z,59.62
2023-04-09T06:58:31.608Z,59.38
2023-04-09T06:59:33.925Z,58.89
2023-04-09T07:00:35.499Z,58.14
2023-04-09T07:01:37.837Z,57.86
2023-04-09T07:02:39.662Z,57.75
2023-04-09T07:03:41.759Z,57.37
2023-04-09T07:04:43.567Z,55.96
2023-04-09T07:05:45.119Z,55.78
2023-04-09T07:06:46.909Z,55.60
2023-04-09T07:07:48.458Z,55.67
2023-04-09T07:08:50.828Z,55.15
2023-04-09T07:09:53.462Z,54.47
2023-04-09T07:10:55.013Z,54.39
2023-04-09T07:11:56.461Z,54.06
2023-04-09T07:12:57.951Z,53.32
2023-04-09T07:13:59.817Z,53.36
2023-04-09T07:15:03.079Z,53.11
2023-04-09T07:16:04.968Z,52.61
2023-04-09T07:17:06.430Z,52.44
2023-04-09T07:18:08.122Z,51.86
2023-04-09T07:19:10.021Z,51.88
2023-04-09T07:20:11.945Z,51.27
2023-04-09T07:21:13.957Z,51.10
2023-04-09T07:22:15.453Z,50.32
2023-04-09T07:23:17.339Z,50.24
2023-04-09T07:24:18.750Z,50.00
2023-04-09T07:25:21.909Z,49.34
2023-04-09T07:26:23.380Z,49.41
2023-04-09T07:27:26.415Z,49.08
2023-04-09T07:28:28.163Z,48.60
2023-04-09T07:29:29.608Z,48.41
2023-04-09T07:30:32.183Z,48.33
2023-04-09T07:31:35.907Z,48.19
2023-04-09T07:32:38.227Z,47.44
2023-04-09T07:33:39.698Z,47.35
2023-04-09T07:34:41.928Z,47.20
2023-04-09T07:35:43.446Z,46.54
2023-04-09T07:36:44.852Z,45.21
2023-04-09T07:37:46.390Z,44.98
2023-04-09T07:38:47.863Z,44.26
2023-04-09T07:39:51.266Z,44.42
2023-04-09T07:40:53.064Z,44.66
2023-04-09T07:41:54.520Z,44.82
2023-04-09T07:42:56.104Z,44.72
2023-04-09T07:43:57.587Z,44.78
2023-04-09T07:44:59.022Z,44.46
2023-04-09T07:46:00.758Z,44.34
2023-04-09T07:47:05.882Z,44.31
2023-04-09T07:48:09.290Z,43.85
2023-04-09T07:49:10.963Z,43.71
2023-04-09T07:50:12.786Z,43.46
2023-04-09T07:51:15.324Z,43.29
2023-04-09T07:52:16.825Z,43.06
2023-04-09T07:53:18.251Z,43.02
2023-04-09T07:54:21.269Z,43.38
2023-04-09T07:55:22.855Z,43.99
2023-04-09T07:56:24.360Z,43.74
2023-04-09T07:57:26.342Z,43.69
2023-04-09T07:58:28.276Z,43.23
2023-04-09T07:59:31.531Z,41.58
2023-04-09T08:00:33.164Z,41.86
2023-04-09T08:01:34.628Z,42.38
2023-04-09T08:02:36.494Z,42.48
2023-04-09T08:03:38.142Z,42.58
2023-04-09T08:04:39.910Z,41.56
2023-04-09T08:05:41.466Z,42.18
2023-04-09T08:06:42.951Z,42.20
2023-04-09T08:07:44.415Z,41.43
2023-04-09T08:08:46.139Z,41.46
2023-04-09T08:09:47.617Z,41.13
2023-04-09T08:10:49.082Z,40.67
2023-04-09T08:11:50.641Z,40.58
2023-04-09T08:12:52.112Z,40.43
2023-04-09T08:13:54.301Z,39.89
2023-04-09T08:14:56.048Z,39.28
2023-04-09T08:16:01.181Z,38.08
2023-04-09T08:17:02.757Z,37.93
2023-04-09T08:18:04.489Z,37.17
2023-04-09T08:19:06.199Z,35.80
2023-04-09T08:20:08.245Z,32.05
2023-04-09T08:21:09.691Z,30.11
2023-04-09T08:22:11.533Z,28.90
2023-04-09T08:23:13.024Z,28.04
2023-04-09T08:24:14.975Z,27.50
2023-04-09T08:25:16.719Z,27.42
2023-04-09T08:26:18.215Z,26.03
2023-04-09T08:27:19.784Z,25.46
2023-04-09T08:28:21.731Z,24.20
2023-04-09T08:29:23.230Z,24.17
2023-04-09T08:30:25.045Z,24.15
2023-04-09T08:31:27.360Z,25.06
2023-04-09T08:32:29.244Z,25.35
2023-04-09T08:33:31.768Z,26.53
2023-04-09T08:34:33.227Z,26.88
2023-04-09T08:35:34.678Z,27.17
2023-04-09T08:36:36.245Z,28.38
2023-04-09T08:37:37.767Z,28.89
2023-04-09T08:38:39.211Z,29.93
2023-04-09T08:39:40.773Z,31.38
2023-04-09T08:40:42.361Z,32.18
2023-04-09T08:41:44.431Z,33.13
2023-04-09T08:42:47.035Z,33.95
2023-04-09T08:43:57.889Z,34.92
2023-04-09T08:45:04.032Z,34.12
2023-04-09T08:46:06.093Z,35.11
2023-04-09T08:47:11.591Z,35.31
2023-04-09T08:48:13.985Z,35.13
2023-04-09T08:49:15.742Z,35.50
2023-04-09T08:50:17.314Z,35.59
2023-04-09T08:51:21.044Z,36.23
2023-04-09T08:52:32.659Z,37.04
2023-04-09T08:53:36.153Z,36.96
2023-04-09T08:54:37.982Z,37.32
2023-04-09T08:55:39.464Z,37.26
2023-04-09T08:56:40.959Z,37.11
2023-04-09T08:57:44.025Z,37.02
2023-04-09T08:58:46.918Z,36.55
2023-04-09T08:59:48.286Z,36.32
2023-04-09T09:00:49.842Z,36.83
2023-04-09T09:02:11.239Z,37.05
2023-04-09T09:03:13.310Z,38.40
2023-04-09T09:04:15.008Z,38.29
2023-04-09T09:05:16.668Z,38.27
2023-04-09T09:06:22.490Z,38.07
2023-04-09T09:07:24.008Z,38.37
2023-04-09T09:08:26.716Z,38.59
2023-04-09T09:09:28.173Z,38.84
2023-04-09T09:10:40.984Z,39.30
2023-04-09T09:11:44.687Z,39.37
2023-04-09T09:12:46.111Z,39.31
2023-04-09T09:13:58.068Z,40.01
2023-04-09T09:15:00.045Z,40.32
2023-04-09T09:16:15.184Z,40.37
2023-04-09T09:17:17.043Z,40.63
2023-04-09T09:18:19.473Z,40.50
2023-04-09T09:19:24.354Z,41.00
2023-04-09T09:20:27.550Z,40.91
2023-04-09T09:21:30.136Z,41.55
2023-04-09T09:22:55.255Z,41.20
2023-04-09T09:23:57.579Z,41.67
2023-04-09T09:24:59.036Z,42.00
2023-04-09T09:26:00.508Z,41.30
2023-04-09T09:27:02.705Z,40.90
2023-04-09T09:28:12.058Z,41.39
2023-04-09T09:29:13.817Z,41.56
2023-04-09T09:30:26.880Z,42.17
2023-04-09T09:31:28.619Z,41.63
2023-04-09T09:32:30.392Z,41.48
2023-04-09T09:33:33.764Z,42.26
2023-04-09T09:34:35.241Z,42.25
2023-04-09T09:35:56.893Z,42.25
2023-04-09T09:36:58.456Z,41.55
2023-04-09T09:38:06.560Z,41.52
2023-04-09T09:39:12.221Z,41.62
2023-04-09T09:40:27.835Z,41.71
2023-04-09T09:41:29.630Z,42.39
2023-04-09T09:42:31.842Z,42.09
2023-04-09T09:43:51.758Z,41.79
2023-04-09T09:44:55.032Z,40.97
2023-04-09T09:45:57.344Z,41.04
2023-04-09T09:46:58.951Z,41.31
2023-04-09T09:48:00.679Z,41.77
2023-04-09T09:49:02.408Z,40.82
2023-04-09T09:50:04.195Z,40.76
2023-04-09T09:51:11.041Z,39.56
2023-04-09T09:52:12.766Z,40.10
2023-04-09T09:53:17.105Z,40.78
2023-04-09T09:54:23.470Z,40.97
2023-04-09T09:55:29.036Z,40.90
2023-04-09T09:56:33.962Z,40.60
2023-04-09T09:57:41.721Z,40.68
2023-04-09T09:58:56.409Z,41.94
2023-04-09T10:00:04.225Z,41.41
2023-04-09T10:01:11.284Z,40.70
2023-04-09T10:02:19.173Z,40.55
2023-04-09T10:03:27.649Z,41.22
2023-04-09T10:04:32.410Z,40.39
2023-04-09T10:05:36.676Z,40.66
2023-04-09T10:06:38.786Z,41.06
2023-04-09T10:07:41.044Z,40.62
2023-04-09T10:08:42.779Z,40.57
2023-04-09T10:09:48.776Z,40.23
2023-04-09T10:10:52.424Z,41.24
2023-04-09T10:11:56.009Z,41.49
2023-04-09T10:12:57.978Z,40.56
2023-04-09T10:13:59.731Z,41.23
2023-04-09T10:15:05.131Z,40.92
2023-04-09T10:16:07.594Z,41.21
2023-04-09T10:17:09.245Z,40.99
2023-04-09T10:18:10.829Z,40.61
2023-04-09T10:19:14.712Z,40.37
2023-04-09T10:20:27.531Z,40.30
2023-04-09T10:21:47.695Z,39.58
2023-04-09T10:22:51.782Z,39.70
2023-04-09T10:23:53.999Z,39.43
2023-04-09T10:24:56.295Z,39.73
2023-04-09T10:25:57.752Z,38.98
2023-04-09T10:27:10.287Z,38.53
2023-04-09T10:28:18.429Z,38.83
2023-04-09T10:29:29.169Z,38.50
2023-04-09T10:30:37.304Z,38.60
2023-04-09T10:32:03.158Z,38.49
2023-04-09T10:33:15.922Z,38.57
2023-04-09T10:34:21.405Z,37.56
2023-04-09T10:35:26.877Z,38.25
2023-04-09T10:36:31.458Z,38.86
2023-04-09T10:37:35.518Z,38.35
2023-04-09T10:38:40.605Z,39.09
2023-04-09T10:39:47.746Z,37.75
2023-04-09T10:40:50.956Z,36.94
2023-04-09T10:41:54.339Z,35.88
2023-04-09T10:42:58.124Z,35.88
2023-04-09T10:43:59.547Z,35.93
2023-04-09T10:45:12.391Z,35.75
2023-04-09T10:46:31.168Z,36.11
2023-04-09T10:47:34.556Z,35.09
2023-04-09T10:48:36.061Z,35.10
2023-04-09T10:49:41.877Z,35.53
2023-04-09T10:50:44.688Z,35.74
2023-04-09T10:51:52.175Z,34.14
2023-04-09T10:52:56.497Z,33.37
2023-04-09T10:53:57.977Z,33.48
2023-04-09T10:54:59.674Z,32.93
2023-04-09T10:56:01.387Z,33.15
2023-04-09T10:57:08.917Z,33.12
2023-04-09T10:58:13.601Z,32.95
2023-04-09T10:59:15.532Z,33.76
2023-04-09T11:00:18.800Z,34.16
2023-04-09T11:01:22.478Z,33.67
2023-04-09T11:02:26.810Z,34.06
2023-04-09T11:03:31.984Z,36.26
2023-04-09T11:04:59.308Z,36.47
2023-04-09T11:06:09.401Z,36.79
2023-04-09T11:07:11.543Z,36.19
2023-04-09T11:08:14.422Z,36.71
2023-04-09T11:09:16.233Z,35.50
2023-04-09T11:10:17.826Z,34.04
2023-04-09T11:11:26.460Z,34.35
2023-04-09T11:12:27.878Z,32.82
2023-04-09T11:13:31.081Z,32.29
2023-04-09T11:14:33.969Z,32.31
2023-04-09T11:15:36.779Z,31.54
2023-04-09T11:16:38.263Z,31.47
2023-04-09T11:17:39.783Z,31.99
2023-04-09T11:18:41.321Z,32.04
2023-04-09T11:19:44.076Z,31.90
2023-04-09T11:20:46.185Z,32.26
2023-04-09T11:21:48.404Z,32.47
2023-04-09T11:22:51.970Z,32.43
2023-04-09T11:23:53.655Z,32.87
2023-04-09T11:24:55.310Z,33.42
2023-04-09T11:25:56.825Z,33.10
2023-04-09T11:26:58.321Z,33.39
2023-04-09T11:28:02.240Z,34.09
2023-04-09T11:29:09.705Z,34.27
2023-04-09T11:30:11.509Z,35.59
2023-04-09T11:31:13.038Z,34.68
2023-04-09T11:32:14.580Z,34.84
2023-04-09T11:33:18.281Z,34.99
2023-04-09T11:34:21.134Z,34.67
2023-04-09T11:35:23.736Z,32.85
2023-04-09T11:36:27.089Z,32.86
2023-04-09T11:37:28.570Z,33.36
2023-04-09T11:38:31.357Z,33.55
2023-04-09T11:39:36.580Z,34.45
2023-04-09T11:40:47.690Z,33.37
2023-04-09T11:41:49.166Z,33.78
2023-04-09T11:42:52.617Z,33.69
2023-04-09T11:43:54.040Z,33.94
2023-04-09T11:44:55.907Z,33.82
2023-04-09T11:45:57.825Z,34.38
2023-04-09T11:47:00.021Z,32.86
2023-04-09T11:48:02.575Z,32.28
2023-04-09T11:49:04.363Z,32.00
2023-04-09T11:50:10.436Z,32.31
2023-04-09T11:51:12.370Z,32.48
2023-04-09T11:52:16.550Z,32.05
2023-04-09T11:53:19.687Z,32.47
2023-04-09T11:54:21.326Z,32.70
2023-04-09T11:55:33.583Z,33.09
2023-04-09T11:56:36.345Z,33.19
2023-04-09T11:57:41.548Z,32.88
2023-04-09T11:58:47.615Z,32.96
2023-04-09T11:59:49.149Z,33.37
2023-04-09T12:00:56.577Z,34.01
2023-04-09T12:01:58.830Z,33.98
2023-04-09T12:03:05.481Z,34.61
2023-04-09T12:04:20.941Z,33.10
2023-04-09T12:05:25.107Z,32.80
2023-04-09T12:06:27.656Z,33.72
2023-04-09T12:07:33.676Z,33.91
2023-04-09T12:08:36.323Z,33.15
2023-04-09T12:09:47.863Z,33.87
2023-04-09T12:10:50.492Z,33.00
2023-04-09T12:11:53.437Z,31.98
2023-04-09T12:12:55.274Z,32.12
2023-04-09T12:14:03.456Z,32.43
2023-04-09T12:15:12.497Z,34.49
2023-04-09T12:16:14.889Z,32.65
2023-04-09T12:17:16.530Z,32.34
2023-04-09T12:18:17.941Z,32.12
2023-04-09T12:19:21.127Z,31.98
2023-04-09T12:20:49.820Z,32.04
2023-04-09T12:21:56.352Z,32.23
2023-04-09T12:23:00.269Z,32.18
2023-04-09T12:24:01.728Z,32.48
2023-04-09T12:25:03.272Z,32.77
2023-04-09T12:26:04.941Z,32.78
2023-04-09T12:27:06.668Z,32.12
2023-04-09T12:28:09.539Z,31.94
2023-04-09T12:29:10.942Z,31.67
2023-04-09T12:30:12.473Z,31.37
2023-04-09T12:31:13.993Z,31.97
2023-04-09T12:32:15.435Z,31.91
2023-04-09T12:33:17.050Z,31.11
2023-04-09T12:34:18.537Z,30.65
2023-04-09T12:35:21.399Z,30.59
2023-04-09T12:36:23.966Z,31.50
2023-04-09T12:37:25.570Z,31.21
2023-04-09T12:38:27.255Z,30.66
2023-04-09T12:39:28.717Z,30.03
2023-04-09T12:40:30.524Z,29.88
2023-04-09T12:41:32.051Z,29.70
2023-04-09T12:42:33.581Z,30.11
2023-04-09T12:43:35.302Z,30.00
2023-04-09T12:44:37.287Z,30.82
2023-04-09T12:45:39.234Z,30.51
2023-04-09T12:46:40.740Z,29.89
2023-04-09T12:47:43.210Z,28.50
2023-04-09T12:48:44.942Z,29.38
2023-04-09T12:49:46.923Z,29.63
2023-04-09T12:50:48.616Z,29.91
2023-04-09T12:51:51.133Z,30.28
2023-04-09T12:52:52.560Z,30.32
2023-04-09T12:54:00.919Z,30.43
2023-04-09T12:55:03.446Z,30.72
2023-04-09T12:56:05.336Z,30.92
2023-04-09T12:57:08.230Z,31.63
2023-04-09T12:58:09.609Z,31.87
2023-04-09T12:59:11.302Z,32.43
2023-04-09T13:00:13.573Z,33.10
2023-04-09T13:01:15.210Z,33.88
2023-04-09T13:02:17.014Z,34.04
2023-04-09T13:03:18.863Z,34.14
2023-04-09T13:04:20.724Z,33.21
2023-04-09T13:05:22.256Z,33.37
2023-04-09T13:06:23.770Z,33.57
2023-04-09T13:07:29.152Z,33.18
2023-04-09T13:08:31.196Z,33.22
2023-04-09T13:09:32.711Z,32.90
2023-04-09T13:10:34.335Z,32.90
2023-04-09T13:11:35.773Z,33.28
2023-04-09T13:12:37.402Z,33.66
2023-04-09T13:13:40.370Z,33.76
2023-04-09T13:14:47.338Z,34.01
2023-04-09T13:15:48.785Z,34.36
2023-04-09T13:16:52.419Z,34.22
2023-04-09T13:17:54.018Z,34.45
2023-04-09T13:18:55.474Z,34.72
2023-04-09T13:19:56.959Z,35.06
2023-04-09T13:20:58.401Z,34.54
2023-04-09T13:21:59.859Z,34.62
2023-04-09T13:23:02.197Z,34.52
2023-04-09T13:24:04.929Z,34.63
2023-04-09T13:25:06.826Z,34.53
2023-04-09T13:26:08.225Z,34.43
2023-04-09T13:27:11.196Z,34.08
2023-04-09T13:28:12.782Z,34.20
2023-04-09T13:29:14.219Z,34.73
2023-04-09T13:30:16.022Z,33.71
2023-04-09T13:31:18.253Z,33.88
2023-04-09T13:32:21.871Z,33.08
2023-04-09T13:33:23.348Z,32.71
2023-04-09T13:34:25.095Z,32.90